Time;durP1;ratioP1;P1;durP2;ratioP2;P2;SDS_P1;SDS_P2;PMS_P1;PMS_P2;Temp;Humidity;BMP_temperature;BMP_pressure;BME280_temperature;BME280_humidity;BME280_pressure;Samples;Min_cycle;Max_cycle;Signal;HPM_P1;HPM_P2
2024/04/05 00:00:53;;;;;;;15.00;4.60;;;14.30;99.90;;;;;;5015165;28;20244;-82
2024/04/05 00:03:19;;;;;;;14.23;4.60;;;14.30;99.90;;;;;;5015086;28;20582;-80
2024/04/05 00:05:44;;;;;;;16.00;4.20;;;14.30;99.90;;;;;;5013939;28;20194;-79
2024/04/05 00:08:10;;;;;;;13.30;4.10;;;14.40;99.90;;;;;;5014252;28;20647;-82
2024/04/05 00:10:36;;;;;;;14.53;4.37;;;14.40;99.90;;;;;;5014355;28;20179;-77
2024/04/05 00:13:01;;;;;;;19.57;4.43;;;14.40;99.90;;;;;;5013114;28;20285;-82
2024/04/05 00:15:27;;;;;;;14.83;4.67;;;14.40;99.90;;;;;;5014412;28;20175;-82
2024/04/05 00:17:53;;;;;;;11.43;3.60;;;14.40;99.90;;;;;;5013063;28;20182;-78
2024/04/05 00:20:18;;;;;;;14.23;4.07;;;14.40;99.90;;;;;;5013622;28;20535;-83
2024/04/05 00:22:44;;;;;;;13.40;4.07;;;14.40;99.90;;;;;;5013615;28;20198;-83
2024/04/05 00:25:10;;;;;;;18.50;4.60;;;14.40;99.90;;;;;;5013496;28;20550;-83
2024/04/05 00:27:35;;;;;;;17.63;4.20;;;14.30;99.90;;;;;;5013454;28;20166;-83
2024/04/05 00:30:02;;;;;;;16.87;4.00;;;14.30;99.90;;;;;;5013717;28;20660;-78
2024/04/05 00:32:28;;;;;;;13.60;4.07;;;14.30;99.90;;;;;;5013035;28;20160;-79
2024/04/05 00:34:53;;;;;;;16.77;4.00;;;14.30;99.90;;;;;;5014257;28;20222;-82
2024/04/05 00:37:19;;;;;;;10.70;3.73;;;14.20;99.90;;;;;;5013713;28;20170;-81
2024/04/05 00:39:45;;;;;;;13.90;3.97;;;14.30;99.90;;;;;;5011395;28;20186;-84
2024/04/05 00:42:10;;;;;;;12.77;3.60;;;14.30;99.90;;;;;;5013480;28;20163;-81
2024/04/05 00:44:36;;;;;;;16.10;3.93;;;14.40;99.90;;;;;;5012609;28;20539;-79
2024/04/05 00:47:02;;;;;;;15.07;3.70;;;14.30;99.90;;;;;;5013742;28;20479;-82
2024/04/05 00:49:29;;;;;;;15.00;3.63;;;14.30;99.90;;;;;;5012663;28;20247;-81
2024/04/05 00:51:56;;;;;;;11.93;3.43;;;14.30;99.90;;;;;;5014592;28;20212;-83
2024/04/05 00:54:23;;;;;;;14.97;3.97;;;14.30;99.90;;;;;;5013697;28;20442;-79
2024/04/05 00:56:49;;;;;;;14.47;3.57;;;14.30;99.90;;;;;;5012732;28;20180;-81
2024/04/05 00:59:18;;;;;;;18.53;3.80;;;14.30;99.90;;;;;;5013597;28;20177;-82
2024/04/05 01:01:44;;;;;;;14.90;3.90;;;14.30;99.90;;;;;;5012543;28;20264;-82
2024/04/05 01:04:10;;;;;;;12.63;3.17;;;14.40;99.90;;;;;;5013678;28;20232;-84
2024/04/05 01:06:37;;;;;;;14.97;3.33;;;14.40;99.90;;;;;;5013577;28;20174;-83
2024/04/05 01:09:06;;;;;;;15.37;3.70;;;14.40;99.90;;;;;;5013494;28;20197;-78
2024/04/05 01:11:32;;;;;;;15.53;4.07;;;14.40;99.90;;;;;;5013913;28;20702;-77
2024/04/05 01:13:58;;;;;;;10.87;3.47;;;14.40;99.90;;;;;;5013193;28;20260;-82
2024/04/05 01:16:24;;;;;;;12.77;3.37;;;14.40;99.90;;;;;;5013370;28;20163;-79
2024/04/05 01:18:52;;;;;;;17.30;3.57;;;14.40;99.90;;;;;;5013752;28;20173;-78
2024/04/05 01:21:20;;;;;;;12.37;3.63;;;14.40;99.90;;;;;;5013387;28;20166;-83
2024/04/05 01:23:46;;;;;;;13.83;4.00;;;14.40;99.90;;;;;;5013420;28;20169;-82
2024/04/05 01:26:12;;;;;;;11.80;3.50;;;14.50;99.90;;;;;;5011595;28;20225;-78
2024/04/05 01:28:37;;;;;;;12.57;4.03;;;14.40;99.90;;;;;;5011872;28;20205;-82
2024/04/05 01:31:03;;;;;;;13.97;3.40;;;14.40;99.90;;;;;;5013700;28;20186;-83
2024/04/05 01:33:29;;;;;;;10.30;3.20;;;14.40;99.90;;;;;;5013234;28;20198;-82
2024/04/05 01:35:54;;;;;;;17.23;3.50;;;14.40;99.90;;;;;;5013369;28;20692;-81
2024/04/05 01:38:20;;;;;;;11.50;3.03;;;14.40;99.90;;;;;;5012595;28;20175;-81
2024/04/05 01:40:46;;;;;;;11.73;3.40;;;14.40;99.90;;;;;;5013939;28;20171;-80
2024/04/05 01:43:11;;;;;;;13.87;3.43;;;14.40;99.90;;;;;;5014023;28;20201;-81
2024/04/05 01:45:38;;;;;;;11.50;3.27;;;14.40;99.90;;;;;;5017630;28;20672;-80
2024/04/05 01:48:05;;;;;;;8.80;3.03;;;14.40;99.90;;;;;;5018268;28;20170;-80
2024/04/05 01:50:30;;;;;;;13.77;3.47;;;14.40;99.90;;;;;;5017604;28;20202;-82
2024/04/05 01:52:56;;;;;;;11.77;3.63;;;14.40;99.90;;;;;;5016303;28;20186;-80
2024/04/05 01:55:22;;;;;;;12.87;3.63;;;14.50;99.90;;;;;;5017966;28;20274;-79
2024/04/05 01:57:48;;;;;;;12.07;3.57;;;14.50;99.90;;;;;;5016490;28;20174;-80
2024/04/05 02:00:14;;;;;;;8.63;2.73;;;14.50;99.90;;;;;;5015546;28;20280;-80
2024/04/05 02:02:39;;;;;;;11.20;3.10;;;14.50;99.90;;;;;;5017268;28;20177;-81
2024/04/05 02:05:05;;;;;;;11.60;3.47;;;14.60;99.90;;;;;;5021006;28;20205;-78
2024/04/05 02:07:31;;;;;;;13.13;3.70;;;14.50;99.90;;;;;;5037163;28;20179;-79
2024/04/05 02:09:57;;;;;;;16.10;3.80;;;14.50;99.90;;;;;;5035428;28;20193;-80
2024/04/05 02:12:27;;;;;;;12.87;3.27;;;14.50;99.90;;;;;;5033481;28;20194;-79
2024/04/05 02:14:55;;;;;;;15.33;3.87;;;14.40;99.90;;;;;;5022487;28;20205;-78
2024/04/05 02:17:22;;;;;;;15.60;3.70;;;14.40;99.90;;;;;;5018000;28;20167;-78
2024/04/05 02:19:50;;;;;;;12.47;3.70;;;14.40;99.90;;;;;;5017202;28;20163;-83
2024/04/05 02:22:16;;;;;;;12.37;3.30;;;14.40;99.90;;;;;;5015226;28;20257;-79
2024/04/05 02:24:42;;;;;;;15.87;3.67;;;14.40;99.90;;;;;;5016535;28;20190;-79
2024/04/05 02:27:08;;;;;;;14.17;3.77;;;14.40;99.90;;;;;;5016122;28;20585;-83
2024/04/05 02:29:33;;;;;;;9.53;3.40;;;14.30;99.90;;;;;;5016466;28;20646;-83
2024/04/05 02:31:59;;;;;;;9.43;3.27;;;14.30;99.90;;;;;;5016383;28;20196;-78
2024/04/05 02:34:25;;;;;;;11.17;3.57;;;14.30;99.90;;;;;;5015866;28;20226;-84
2024/04/05 02:36:51;;;;;;;14.13;3.77;;;14.30;99.90;;;;;;5016469;28;20226;-82
2024/04/05 02:39:17;;;;;;;11.67;3.50;;;14.30;99.90;;;;;;5016067;28;20225;-80
2024/04/05 02:41:46;;;;;;;12.70;4.17;;;14.40;99.90;;;;;;5015524;28;20166;-83
2024/04/05 02:44:13;;;;;;;13.70;3.70;;;14.40;99.90;;;;;;5016042;28;20190;-78
2024/04/05 02:46:39;;;;;;;10.70;3.80;;;14.40;99.90;;;;;;5015948;28;20214;-81
2024/04/05 02:49:05;;;;;;;13.60;4.03;;;14.40;99.90;;;;;;5016052;28;20204;-81
2024/04/05 02:51:31;;;;;;;10.73;3.83;;;14.40;99.90;;;;;;5016318;28;20224;-81
2024/04/05 02:53:57;;;;;;;14.97;3.73;;;14.60;99.90;;;;;;5016025;28;20211;-82
2024/04/05 02:56:24;;;;;;;11.63;3.57;;;14.70;99.90;;;;;;5014905;28;20166;-81
2024/04/05 02:58:49;;;;;;;11.60;3.47;;;14.60;99.90;;;;;;5015824;28;20178;-79
2024/04/05 03:01:15;;;;;;;12.53;3.33;;;14.50;99.90;;;;;;5015873;28;20658;-78
2024/04/05 03:03:41;;;;;;;12.83;3.87;;;14.50;99.90;;;;;;5015039;28;20627;-83
2024/04/05 03:06:06;;;;;;;13.47;3.93;;;14.40;99.90;;;;;;5016462;28;20599;-80
2024/04/05 03:08:33;;;;;;;7.50;3.23;;;14.50;99.90;;;;;;5014882;28;20181;-79
2024/04/05 03:10:59;;;;;;;8.93;2.97;;;14.50;99.90;;;;;;5047073;28;20261;-82
2024/04/05 03:13:25;;;;;;;9.67;3.10;;;14.40;99.90;;;;;;5014794;28;20301;-81
2024/04/05 03:15:50;;;;;;;10.47;3.27;;;14.40;99.90;;;;;;5015708;28;20174;-83
2024/04/05 03:18:16;;;;;;;8.93;3.10;;;14.40;99.90;;;;;;5015329;28;20523;-81
2024/04/05 03:20:43;;;;;;;12.90;3.50;;;14.30;99.90;;;;;;5014996;28;20182;-80
2024/04/05 03:23:10;;;;;;;9.83;2.97;;;14.30;99.90;;;;;;5015150;28;20202;-81
2024/04/05 03:25:37;;;;;;;10.47;3.70;;;14.30;99.90;;;;;;5014834;28;20166;-75
2024/04/05 03:28:04;;;;;;;13.70;3.50;;;14.30;99.90;;;;;;5014484;28;20238;-83
2024/04/05 03:30:29;;;;;;;12.80;3.30;;;14.30;99.90;;;;;;5015369;28;20221;-81
2024/04/05 03:32:56;;;;;;;12.23;3.20;;;14.30;99.90;;;;;;5015320;28;20254;-79
2024/04/05 03:35:22;;;;;;;11.80;3.17;;;14.30;99.90;;;;;;5014451;28;20282;-83
2024/04/05 03:37:52;;;;;;;11.30;3.57;;;14.30;99.90;;;;;;5014159;28;20190;-82
2024/04/05 03:40:18;;;;;;;10.97;3.20;;;14.30;99.90;;;;;;5015226;28;20636;-77
2024/04/05 03:42:43;;;;;;;10.77;2.93;;;14.20;99.90;;;;;;5015048;28;20174;-79
2024/04/05 03:45:09;;;;;;;10.17;3.03;;;14.30;99.90;;;;;;5014830;28;20175;-84
2024/04/05 03:47:35;;;;;;;8.43;2.67;;;14.30;99.90;;;;;;5014567;28;20170;-83
2024/04/05 03:50:00;;;;;;;9.37;2.90;;;14.20;99.90;;;;;;5007137;28;20183;-78
2024/04/05 03:52:26;;;;;;;12.20;3.17;;;14.30;99.90;;;;;;4995516;28;20573;-79
2024/04/05 03:54:52;;;;;;;10.17;3.27;;;14.30;99.90;;;;;;4994967;28;20222;-80
2024/04/05 03:57:21;;;;;;;10.63;2.90;;;14.30;99.90;;;;;;4994011;28;20662;-83
2024/04/05 03:59:47;;;;;;;8.37;3.00;;;14.30;99.90;;;;;;5009339;28;20183;-84
2024/04/05 04:02:12;;;;;;;10.87;2.90;;;14.30;99.90;;;;;;4994021;28;20238;-81
2024/04/05 04:04:38;;;;;;;8.77;3.17;;;14.40;99.90;;;;;;4993512;28;20245;-77
2024/04/05 04:07:05;;;;;;;7.87;2.83;;;14.30;99.90;;;;;;4993907;28;20171;-81
2024/04/05 04:09:31;;;;;;;9.47;2.93;;;14.30;99.90;;;;;;4994570;28;20171;-81
2024/04/05 04:11:57;;;;;;;10.40;2.80;;;14.30;99.90;;;;;;5025146;28;20195;-78
2024/04/05 04:14:23;;;;;;;10.33;3.47;;;14.30;99.90;;;;;;4994605;28;20362;-80
2024/04/05 04:16:50;;;;;;;11.10;2.97;;;14.30;99.90;;;;;;4993955;28;20240;-81
2024/04/05 04:19:16;;;;;;;11.77;3.20;;;14.30;99.90;;;;;;4993973;28;20194;-83
2024/04/05 04:21:42;;;;;;;10.23;3.10;;;14.30;99.90;;;;;;4994305;28;20247;-82
2024/04/05 04:24:08;;;;;;;9.70;3.10;;;14.30;99.90;;;;;;4994275;28;20636;-82
2024/04/05 04:26:34;;;;;;;7.57;2.50;;;14.30;99.90;;;;;;4994116;28;20171;-77
2024/04/05 04:29:00;;;;;;;9.07;3.33;;;14.20;99.90;;;;;;4994626;28;20182;-77
2024/04/05 04:31:27;;;;;;;14.93;2.90;;;14.20;99.90;;;;;;4994043;28;20660;-82
2024/04/05 04:33:53;;;;;;;8.23;2.80;;;14.30;99.90;;;;;;4994456;28;20210;-79
2024/04/05 04:36:21;;;;;;;8.30;2.93;;;14.20;99.90;;;;;;4994273;28;20178;-81
2024/04/05 04:38:47;;;;;;;7.70;2.60;;;14.30;99.90;;;;;;4993312;28;20176;-80
2024/04/05 04:41:13;;;;;;;9.20;2.70;;;14.30;99.90;;;;;;4994343;28;20171;-80
2024/04/05 04:43:39;;;;;;;11.63;2.97;;;14.20;99.90;;;;;;4994213;28;20170;-82
2024/04/05 04:46:06;;;;;;;9.40;2.70;;;14.20;99.90;;;;;;5008701;28;20175;-81
2024/04/05 04:48:31;;;;;;;9.97;2.70;;;14.20;99.90;;;;;;4994483;28;20254;-78
2024/04/05 04:50:57;;;;;;;10.40;3.10;;;14.20;99.90;;;;;;5026059;28;20195;-79
2024/04/05 04:53:22;;;;;;;10.27;2.60;;;14.20;99.90;;;;;;4997062;28;20256;-78
2024/04/05 04:55:48;;;;;;;12.27;3.33;;;14.20;99.90;;;;;;4995499;28;20193;-80
2024/04/05 04:58:17;;;;;;;8.00;2.60;;;14.20;99.90;;;;;;4994864;28;20636;-77
2024/04/05 05:00:47;;;;;;;9.10;2.90;;;14.20;99.90;;;;;;4993894;28;20262;-80
2024/04/05 05:03:13;;;;;;;10.00;2.67;;;14.20;99.90;;;;;;5002229;28;20171;-80
2024/04/05 05:05:39;;;;;;;10.20;2.80;;;14.20;99.90;;;;;;5015858;28;20189;-82
2024/04/05 05:08:05;;;;;;;11.70;3.17;;;14.20;99.90;;;;;;5013380;28;20166;-82
2024/04/05 05:10:31;;;;;;;12.03;2.90;;;14.20;99.90;;;;;;5013930;28;20167;-82
2024/04/05 05:12:58;;;;;;;11.30;2.73;;;14.30;99.90;;;;;;5013650;28;20201;-76
2024/04/05 05:15:25;;;;;;;9.43;2.67;;;14.30;99.90;;;;;;5014304;28;20174;-83
2024/04/05 05:17:53;;;;;;;9.43;2.90;;;14.30;99.90;;;;;;5016933;28;20197;-83
2024/04/05 05:20:22;;;;;;;11.20;3.27;;;14.30;99.90;;;;;;5019379;28;20232;-81
2024/04/05 05:22:48;;;;;;;8.80;3.17;;;14.30;99.90;;;;;;5019863;28;20170;-79
2024/04/05 05:25:15;;;;;;;7.80;3.70;;;14.40;99.90;;;;;;5018884;28;20170;-78
2024/04/05 05:27:41;;;;;;;8.23;3.20;;;14.40;99.90;;;;;;5020076;28;20241;-82
2024/04/05 05:30:07;;;;;;;10.23;3.63;;;14.30;99.90;;;;;;5032199;28;20700;-84
2024/04/05 05:32:32;;;;;;;9.60;3.07;;;14.30;99.90;;;;;;5032357;28;20191;-77
2024/04/05 05:34:58;;;;;;;10.40;3.30;;;14.30;99.90;;;;;;5031431;28;20414;-78
2024/04/05 05:37:24;;;;;;;9.40;2.87;;;14.40;99.90;;;;;;5032938;28;20185;-77
2024/04/05 05:39:50;;;;;;;9.73;3.10;;;14.50;99.90;;;;;;5020672;28;20627;-77
2024/04/05 05:42:19;;;;;;;9.83;3.20;;;14.50;99.90;;;;;;5019702;28;20162;-80
2024/04/05 05:44:45;;;;;;;9.87;3.43;;;14.40;99.90;;;;;;5018429;28;20174;-84
2024/04/05 05:47:10;;;;;;;9.90;2.63;;;14.40;99.90;;;;;;5020305;28;20564;-83
2024/04/05 05:49:36;;;;;;;8.17;2.60;;;14.50;99.90;;;;;;5019390;28;20174;-78
2024/04/05 05:52:02;;;;;;;7.17;2.50;;;14.70;99.90;;;;;;5019323;28;20227;-77
2024/04/05 05:54:27;;;;;;;8.97;4.10;;;14.60;99.90;;;;;;5019384;28;20969;-81
2024/04/05 05:56:54;;;;;;;9.50;3.10;;;14.70;99.90;;;;;;5019021;28;20507;-82
2024/04/05 05:59:20;;;;;;;9.83;2.43;;;14.60;99.90;;;;;;5020295;28;20166;-82
2024/04/05 06:01:46;;;;;;;6.60;2.50;;;14.70;99.90;;;;;;5019633;28;20170;-84
2024/04/05 06:04:11;;;;;;;4.63;2.10;;;14.70;99.90;;;;;;5019038;28;20245;-81
2024/04/05 06:06:38;;;;;;;9.37;2.90;;;14.80;99.90;;;;;;5019408;28;20713;-77
2024/04/05 06:09:07;;;;;;;8.37;2.33;;;14.80;99.90;;;;;;5018275;28;20184;-78
2024/04/05 06:11:35;;;;;;;6.70;1.97;;;14.80;99.90;;;;;;5019234;28;20186;-79
2024/04/05 06:14:00;;;;;;;8.17;2.20;;;14.70;99.90;;;;;;5017838;28;20670;-83
2024/04/05 06:16:27;;;;;;;5.37;2.40;;;14.70;99.90;;;;;;5018913;28;20286;-81
2024/04/05 06:18:52;;;;;;;9.07;2.43;;;14.80;99.90;;;;;;5019194;28;20255;-78
2024/04/05 06:21:18;;;;;;;8.17;2.30;;;14.70;99.90;;;;;;5017865;28;20201;-77
2024/04/05 06:23:43;;;;;;;8.00;2.37;;;14.70;99.90;;;;;;5019151;28;20635;-79
2024/04/05 06:26:09;;;;;;;8.63;2.40;;;14.70;99.90;;;;;;5018473;28;20178;-78
2024/04/05 06:28:35;;;;;;;7.83;2.90;;;14.70;99.90;;;;;;5018449;28;20530;-80
2024/04/05 06:31:01;;;;;;;4.93;2.33;;;14.80;99.90;;;;;;5015162;28;20177;-78
2024/04/05 06:33:27;;;;;;;8.00;2.20;;;14.80;99.90;;;;;;5014946;28;20190;-79
2024/04/05 06:36:00;;;;;;;10.53;2.87;;;14.70;99.90;;;;;;5015565;28;20185;-78
2024/04/05 06:38:29;;;;;;;4.47;1.90;;;14.80;99.90;;;;;;5013059;28;20185;-82
2024/04/05 06:41:00;;;;;;;7.60;2.37;;;14.80;99.90;;;;;;5014784;28;20222;-83
2024/04/05 06:43:29;;;;;;;8.20;2.80;;;14.90;98.90;;;;;;5014355;28;20159;-83
2024/04/05 06:45:57;;;;;;;9.27;2.47;;;14.90;98.00;;;;;;5014014;28;20166;-83
2024/04/05 06:48:23;;;;;;;5.57;1.80;;;14.90;96.00;;;;;;5014309;28;20717;-79
2024/04/05 06:50:49;;;;;;;6.63;2.10;;;14.90;95.00;;;;;;5014223;28;20249;-78
2024/04/05 06:53:19;;;;;;;5.93;1.90;;;15.00;94.40;;;;;;5013963;28;20194;-79
2024/04/05 06:55:48;;;;;;;5.67;1.53;;;15.00;90.90;;;;;;5015436;28;20194;-78
2024/04/05 06:58:14;;;;;;;7.30;2.30;;;15.00;90.80;;;;;;5014855;28;20170;-78
2024/04/05 07:00:41;;;;;;;5.67;2.00;;;15.10;87.50;;;;;;5013886;28;20179;-79
2024/04/05 07:03:07;;;;;;;5.40;1.77;;;15.10;85.40;;;;;;5015002;28;20249;-79
2024/04/05 07:05:33;;;;;;;5.13;1.70;;;15.20;77.50;;;;;;5012777;28;20233;-82
2024/04/05 07:08:00;;;;;;;6.87;1.67;;;15.20;70.90;;;;;;5015638;28;20246;-83
2024/04/05 07:10:27;;;;;;;5.57;1.57;;;15.30;65.40;;;;;;5014854;28;20640;-83
2024/04/05 07:12:52;;;;;;;5.87;1.43;;;15.30;62.40;;;;;;5015161;28;20244;-80
2024/04/05 07:15:20;;;;;;;6.33;2.00;;;15.40;57.20;;;;;;5015154;28;20650;-80
2024/04/05 07:17:51;;;;;;;7.73;1.80;;;15.50;53.40;;;;;;5014756;28;20174;-79
2024/04/05 07:20:21;;;;;;;4.77;1.53;;;15.60;86.40;;;;;;5014490;28;20166;-83
2024/04/05 07:22:48;;;;;;;7.37;2.20;;;15.70;90.00;;;;;;5015042;28;20228;-84
2024/04/05 07:25:14;;;;;;;7.60;1.57;;;15.60;88.10;;;;;;5046930;28;20639;-83
2024/04/05 07:27:45;;;;;;;4.10;1.70;;;15.70;86.80;;;;;;5014741;28;20166;-83
2024/04/05 07:30:11;;;;;;;4.27;1.33;;;15.80;81.50;;;;;;5014871;28;20171;-84
2024/04/05 07:32:37;;;;;;;3.37;1.40;;;15.80;77.00;;;;;;5013167;28;20174;-79
2024/04/05 07:35:03;;;;;;;4.23;1.67;;;15.90;73.60;;;;;;5014648;28;20243;-80
2024/04/05 07:37:28;;;;;;;7.53;1.83;;;16.00;73.70;;;;;;5014737;28;20207;-85
2024/04/05 07:39:55;;;;;;;3.90;1.37;;;16.00;71.20;;;;;;5014642;28;20662;-79
2024/04/05 07:42:21;;;;;;;3.80;1.73;;;16.10;65.90;;;;;;5018521;28;20284;-81
2024/04/05 07:44:47;;;;;;;5.43;1.70;;;16.10;64.30;;;;;;5009687;28;20529;-83
2024/04/05 07:47:13;;;;;;;4.13;1.20;;;16.20;64.10;;;;;;5014066;28;20185;-80
2024/04/05 07:49:39;;;;;;;4.27;1.10;;;16.20;61.30;;;;;;5015373;28;20170;-82
2024/04/05 07:52:06;;;;;;;6.70;1.70;;;16.20;59.40;;;;;;5015073;28;20175;-83
2024/04/05 07:54:32;;;;;;;4.47;1.50;;;16.30;55.90;;;;;;5013983;28;20211;-79
2024/04/05 07:56:58;;;;;;;5.23;1.90;;;16.30;53.90;;;;;;5019473;28;20543;-81
2024/04/05 07:59:24;;;;;;;7.83;1.80;;;16.30;53.80;;;;;;5033936;28;20185;-85
2024/04/05 08:01:50;;;;;;;4.67;1.50;;;16.30;53.00;;;;;;5034388;28;20579;-88
2024/04/05 08:04:15;;;;;;;5.53;1.50;;;16.40;53.40;;;;;;5032115;28;20669;-84
2024/04/05 08:06:41;;;;;;;4.90;1.90;;;16.40;51.90;;;;;;5033941;28;20907;-80
2024/04/05 08:09:07;;;;;;;6.27;1.80;;;16.50;50.30;;;;;;5033210;28;20175;-81
2024/04/05 08:11:33;;;;;;;4.40;1.80;;;16.50;49.90;;;;;;5013364;28;20174;-81
2024/04/05 08:13:59;;;;;;;4.57;1.60;;;16.50;51.80;;;;;;5014497;28;20199;-81
2024/04/05 08:16:26;;;;;;;6.80;1.70;;;16.50;50.50;;;;;;5014710;28;20516;-79
2024/04/05 08:18:53;;;;;;;5.37;1.50;;;16.50;49.40;;;;;;5013872;28;20270;-79
2024/04/05 08:21:18;;;;;;;4.60;1.80;;;16.50;49.90;;;;;;5014499;28;20539;-80
2024/04/05 08:23:44;;;;;;;3.17;1.57;;;16.50;53.30;;;;;;5013978;28;20199;-87
2024/04/05 08:26:10;;;;;;;4.27;1.50;;;16.50;55.10;;;;;;5013764;28;20179;-77
2024/04/05 08:28:36;;;;;;;4.93;1.70;;;16.60;56.90;;;;;;5045312;28;20229;-81
2024/04/05 08:31:02;;;;;;;3.53;1.33;;;16.50;57.40;;;;;;5013448;28;20172;-79
2024/04/05 08:33:28;;;;;;;4.17;1.30;;;16.40;61.50;;;;;;5013869;28;20198;-79
2024/04/05 08:35:54;;;;;;;3.47;1.30;;;16.30;66.60;;;;;;5013962;28;20253;-83
2024/04/05 08:38:21;;;;;;;4.63;1.80;;;16.30;68.30;;;;;;5014813;28;20174;-82
2024/04/05 08:40:47;;;;;;;4.73;1.33;;;16.30;67.30;;;;;;5046033;28;20627;-86
2024/04/05 08:43:17;;;;;;;5.57;1.77;;;16.30;67.20;;;;;;5014622;28;20187;-80
2024/04/05 08:45:44;;;;;;;4.90;1.60;;;16.40;69.60;;;;;;5013360;28;20252;-81
2024/04/05 08:48:11;;;;;;;5.07;1.80;;;16.40;63.70;;;;;;5014641;28;20165;-82
2024/04/05 08:50:37;;;;;;;6.10;2.03;;;16.40;65.50;;;;;;5012902;28;20205;-82
2024/04/05 08:53:04;;;;;;;6.73;1.40;;;16.40;61.40;;;;;;5045122;28;20272;-80
2024/04/05 08:55:33;;;;;;;2.67;1.47;;;16.50;60.10;;;;;;5044760;28;20216;-78
2024/04/05 08:58:00;;;;;;;4.73;1.53;;;16.40;58.70;;;;;;5013251;28;20180;-84
2024/04/05 09:00:27;;;;;;;4.50;2.03;;;16.40;60.10;;;;;;5013347;28;20703;-80
2024/04/05 09:02:56;;;;;;;7.50;2.03;;;16.40;62.00;;;;;;5023241;28;20512;-80
2024/04/05 09:05:23;;;;;;;5.60;1.70;;;16.50;62.00;;;;;;5017596;28;20280;-84
2024/04/05 09:07:50;;;;;;;3.67;1.77;;;16.50;62.40;;;;;;5013825;28;20174;-78
2024/04/05 09:10:19;;;;;;;4.73;1.70;;;16.60;58.80;;;;;;5013302;28;20166;-83
2024/04/05 09:12:52;;;;;;;4.70;1.80;;;16.60;59.80;;;;;;5022949;28;20203;-80
2024/04/05 09:15:24;;;;;;;4.57;1.90;;;16.60;58.10;;;;;;5045156;28;20231;-86
2024/04/05 09:17:49;;;;;;;5.60;1.70;;;16.60;59.20;;;;;;5047460;28;20177;-80
2024/04/05 09:20:26;;;;;;;6.80;1.70;;;16.70;57.10;;;;;;5047940;28;20170;-80
2024/04/05 09:23:01;;;;;;;4.33;2.00;;;16.80;55.50;;;;;;5030360;28;20196;-80
2024/04/05 09:25:31;;;;;;;4.00;1.70;;;16.80;52.60;;;;;;5030558;28;20261;-85
2024/04/05 09:28:07;;;;;;;5.40;1.47;;;16.90;48.30;;;;;;5033930;28;20177;-80
2024/04/05 09:30:34;;;;;;;3.57;1.80;;;16.90;43.10;;;;;;5033290;28;20181;-80
2024/04/05 09:33:03;;;;;;;6.30;2.87;;;17.00;39.60;;;;;;5033666;28;20172;-83
2024/04/05 09:35:31;;;;;;;6.83;2.13;;;16.90;38.10;;;;;;5033374;28;20176;-80
2024/04/05 09:37:58;;;;;;;2.53;1.50;;;17.00;39.00;;;;;;5032776;28;20174;-88
2024/04/05 09:40:24;;;;;;;3.73;1.43;;;17.00;33.50;;;;;;5022230;28;20187;-78
2024/04/05 09:42:54;;;;;;;7.10;2.10;;;17.00;33.00;;;;;;5012921;28;20643;-80
2024/04/05 09:45:21;;;;;;;4.37;1.60;;;16.90;33.40;;;;;;5009734;28;20173;-81
2024/04/05 09:47:48;;;;;;;5.37;1.73;;;17.00;29.00;;;;;;5013487;28;20197;-83
2024/04/05 09:50:14;;;;;;;6.43;1.97;;;17.00;28.50;;;;;;5013933;28;20159;-79
2024/04/05 09:52:43;;;;;;;4.93;1.67;;;16.90;30.40;;;;;;5013616;28;20193;-85
2024/04/05 09:55:10;;;;;;;4.93;1.87;;;17.00;29.30;;;;;;5013105;28;20224;-79
2024/04/05 09:57:36;;;;;;;8.43;1.70;;;16.90;30.00;;;;;;5013682;28;20650;-83
2024/04/05 10:00:14;;;;;;;5.60;1.53;;;17.00;31.60;;;;;;5014893;28;20171;-80
2024/04/05 10:02:52;;;;;;;4.40;1.90;;;17.00;29.00;;;;;;5013233;28;20196;-79
2024/04/05 10:05:34;;;;;;;5.80;1.87;;;17.00;29.20;;;;;;5014287;28;20196;-79
2024/04/05 10:08:16;;;;;;;4.20;1.80;;;17.00;30.90;;;;;;5016135;28;20234;-82
2024/04/05 10:10:42;;;;;;;4.40;1.80;;;17.00;29.80;;;;;;5021396;28;20177;-79
2024/04/05 10:13:15;;;;;;;4.30;1.60;;;17.00;29.00;;;;;;5022930;28;20194;-81
2024/04/05 10:15:58;;;;;;;5.07;1.70;;;17.00;31.30;;;;;;5015246;28;20635;-82
2024/04/05 10:18:34;;;;;;;7.13;1.60;;;17.10;29.30;;;;;;5017115;28;20171;-82
2024/04/05 10:21:08;;;;;;;3.47;1.60;;;17.10;29.20;;;;;;5016062;28;20718;-83
2024/04/05 10:23:35;;;;;;;6.17;1.80;;;17.10;28.50;;;;;;5008446;28;20187;-81
2024/04/05 10:26:11;;;;;;;3.20;1.57;;;17.20;27.60;;;;;;5003189;28;20174;-85
2024/04/05 10:28:37;;;;;;;6.60;2.10;;;17.30;26.60;;;;;;4997124;28;20594;-83
2024/04/05 10:31:05;;;;;;;4.83;1.90;;;17.30;26.80;;;;;;5011003;28;20628;-84
2024/04/05 10:33:32;;;;;;;5.77;1.80;;;17.30;27.20;;;;;;5015463;28;20193;-81
2024/04/05 10:35:59;;;;;;;4.83;1.90;;;17.40;28.60;;;;;;5015976;28;20180;-81
2024/04/05 10:38:29;;;;;;;5.03;2.03;;;17.40;32.40;;;;;;5014629;28;20174;-83
2024/04/05 10:40:59;;;;;;;3.93;1.60;;;17.40;37.10;;;;;;5015315;28;20195;-87
2024/04/05 10:43:26;;;;;;;7.43;1.90;;;17.40;40.10;;;;;;5015467;28;20175;-84
2024/04/05 10:45:56;;;;;;;7.43;2.00;;;17.20;45.50;;;;;;5015546;28;20173;-78
2024/04/05 10:48:23;;;;;;;3.33;1.50;;;17.00;50.40;;;;;;5016640;28;20590;-81
2024/04/05 10:50:50;;;;;;;3.83;1.60;;;16.90;54.40;;;;;;5014753;28;20177;-80
2024/04/05 10:53:16;;;;;;;8.53;1.60;;;16.80;57.30;;;;;;5016220;28;20163;-86
2024/04/05 10:55:43;;;;;;;4.50;1.83;;;16.70;68.60;;;;;;5014521;28;20608;-82
2024/04/05 10:58:13;;;;;;;5.00;1.50;;;16.70;73.80;;;;;;5014848;28;20166;-85
2024/04/05 11:00:40;;;;;;;4.80;1.87;;;16.70;71.40;;;;;;5020196;28;20218;-85
2024/04/05 11:03:11;;;;;;;2.83;1.20;;;16.70;75.90;;;;;;5021652;28;20178;-81
2024/04/05 11:05:37;;;;;;;5.90;1.87;;;16.60;76.70;;;;;;5013638;28;20277;-79
2024/04/05 11:08:05;;;;;;;3.40;1.43;;;16.50;84.00;;;;;;4994519;28;20197;-78
2024/04/05 11:10:33;;;;;;;10.43;2.07;;;16.40;91.30;;;;;;4995095;28;20549;-79
2024/04/05 11:12:59;;;;;;;5.17;1.90;;;16.40;91.40;;;;;;4995396;28;20206;-77
2024/04/05 11:15:25;;;;;;;5.03;1.50;;;16.50;92.90;;;;;;5015287;28;20240;-85
2024/04/05 11:18:01;;;;;;;4.33;1.70;;;16.40;97.10;;;;;;5015232;28;20174;-84
2024/04/05 11:20:30;;;;;;;5.87;1.90;;;16.30;99.90;;;;;;5013590;28;20186;-82
2024/04/05 11:23:04;;;;;;;3.83;1.77;;;16.30;99.90;;;;;;5014775;28;20638;-79
2024/04/05 11:25:31;;;;;;;3.13;1.70;;;16.30;99.90;;;;;;5015053;28;20222;-79
2024/04/05 11:27:57;;;;;;;3.90;1.60;;;16.30;99.90;;;;;;5014830;28;20198;-80
2024/04/05 11:30:24;;;;;;;2.60;1.40;;;16.30;99.90;;;;;;5015013;28;20197;-82
2024/04/05 11:32:50;;;;;;;4.27;1.90;;;16.30;99.90;;;;;;5028007;28;20200;-80
2024/04/05 11:35:16;;;;;;;3.60;1.60;;;16.30;99.90;;;;;;5034686;28;20219;-80
2024/04/05 11:37:46;;;;;;;4.10;1.70;;;16.30;99.90;;;;;;5066188;28;20201;-83
2024/04/05 11:40:13;;;;;;;5.20;2.00;;;16.40;99.90;;;;;;5033252;28;20245;-81
2024/04/05 11:42:40;;;;;;;3.50;1.97;;;16.40;99.90;;;;;;5034722;28;20158;-84
2024/04/05 11:45:09;;;;;;;5.50;2.00;;;16.40;99.90;;;;;;5035135;28;20169;-79
2024/04/05 11:47:36;;;;;;;4.70;1.80;;;16.30;99.90;;;;;;5065833;28;20764;-84
2024/04/05 11:50:03;;;;;;;3.83;1.60;;;16.30;99.90;;;;;;5032999;28;20180;-85
2024/04/05 11:52:29;;;;;;;4.10;2.13;;;16.30;99.90;;;;;;5034274;28;20184;-87
2024/04/05 11:54:55;;;;;;;4.63;2.20;;;16.30;99.90;;;;;;5034190;28;20247;-81
2024/04/05 11:57:21;;;;;;;6.67;1.80;;;16.30;99.90;;;;;;5032513;28;20204;-80
2024/04/05 11:59:46;;;;;;;6.17;1.77;;;16.30;99.90;;;;;;5036510;28;20165;-79
2024/04/05 12:02:12;;;;;;;6.63;2.10;;;16.20;99.90;;;;;;5015248;28;20174;-87
2024/04/05 12:04:38;;;;;;;3.97;1.77;;;16.10;99.90;;;;;;5014409;28;20249;-81
2024/04/05 12:07:05;;;;;;;5.03;2.13;;;16.20;99.90;;;;;;5013175;28;20665;-80
2024/04/05 12:09:31;;;;;;;6.10;1.97;;;16.20;99.90;;;;;;5013234;28;20339;-80
2024/04/05 12:11:57;;;;;;;4.07;1.80;;;16.20;99.90;;;;;;5009392;28;20963;-81
2024/04/05 12:14:23;;;;;;;4.10;2.07;;;16.30;99.90;;;;;;5012264;28;20221;-81
2024/04/05 12:16:48;;;;;;;3.53;1.63;;;16.50;99.90;;;;;;5012946;28;20188;-85
2024/04/05 12:19:15;;;;;;;3.20;1.77;;;16.50;99.90;;;;;;5015007;28;20183;-82
2024/04/05 12:21:41;;;;;;;5.97;2.00;;;16.40;99.90;;;;;;5046432;28;20171;-85
2024/04/05 12:24:06;;;;;;;5.13;1.97;;;16.50;99.90;;;;;;5013389;28;20232;-85
2024/04/05 12:26:32;;;;;;;5.77;1.90;;;16.60;99.90;;;;;;5014193;28;20164;-83
2024/04/05 12:28:58;;;;;;;5.23;2.20;;;16.70;99.90;;;;;;5014213;28;20181;-81
2024/04/05 12:31:26;;;;;;;3.77;1.60;;;16.70;99.90;;;;;;5014632;28;20150;-85
2024/04/05 12:33:52;;;;;;;4.80;1.90;;;16.60;99.90;;;;;;5046402;28;20198;-85
2024/04/05 12:36:18;;;;;;;4.43;1.90;;;16.60;99.90;;;;;;5014350;28;20242;-80
2024/04/05 12:38:47;;;;;;;3.87;1.80;;;16.60;99.90;;;;;;5013937;28;20248;-87
2024/04/05 12:41:17;;;;;;;6.10;1.93;;;16.80;99.90;;;;;;5012981;28;20179;-84